Time;durP1;ratioP1;P1;durP2;ratioP2;P2;SDS_P1;SDS_P2;PMS_P1;PMS_P2;Temp;Humidity;BMP_temperature;BMP_pressure;BME280_temperature;BME280_humidity;BME280_pressure;Samples;Min_cycle;Max_cycle;Signal;HPM_P1;HPM_P2
2021/01/18 00:00:08;;;;;;;90.60;33.43;;;;;;;;;;5111798;28;20229;-76
2021/01/18 00:03:13;;;;;;;92.50;34.73;;;;;;;;;;5110392;28;20252;-75
2021/01/18 00:06:18;;;;;;;92.67;35.00;;;;;;;;;;5093855;28;20715;-76
2021/01/18 00:09:23;;;;;;;95.80;33.67;;;;;;;;;;5100886;28;20217;-74
2021/01/18 00:12:29;;;;;;;99.97;35.13;;;;;;;;;;5090995;28;20348;-74
2021/01/18 00:15:33;;;;;;;97.50;35.50;;;;;;;;;;5098022;28;20244;-75
2021/01/18 00:18:38;;;;;;;93.17;34.60;;;;;;;;;;5099095;28;20221;-75
2021/01/18 00:21:45;;;;;;;95.87;34.90;;;;;;;;;;5111690;28;20236;-75
2021/01/18 00:24:50;;;;;;;98.37;36.23;;;;;;;;;;5097407;28;20229;-75
2021/01/18 00:27:55;;;;;;;97.03;34.90;;;;;;;;;;5089459;28;20673;-75
2021/01/18 00:31:00;;;;;;;92.27;33.00;;;;;;;;;;5093634;28;20185;-75
2021/01/18 00:34:04;;;;;;;97.93;35.13;;;;;;;;;;5089352;28;20256;-75
2021/01/18 00:37:09;;;;;;;99.63;34.43;;;;;;;;;;5097641;28;20556;-77
2021/01/18 00:40:15;;;;;;;89.77;32.23;;;;;;;;;;5094393;28;20209;-75
2021/01/18 00:43:20;;;;;;;91.13;33.43;;;;;;;;;;5084943;28;20286;-74
2021/01/18 00:46:25;;;;;;;91.33;33.70;;;;;;;;;;5100424;28;20286;-76
2021/01/18 00:49:29;;;;;;;90.13;33.13;;;;;;;;;;5100613;28;20204;-75
2021/01/18 00:52:35;;;;;;;94.13;33.50;;;;;;;;;;5091474;28;20229;-75
2021/01/18 00:55:40;;;;;;;95.53;33.57;;;;;;;;;;5088784;28;20255;-76
2021/01/18 00:59:04;;;;;;;93.93;33.57;;;;;;;;;;5110555;28;20240;-75
2021/01/18 01:02:21;;;;;;;98.50;34.43;;;;;;;;;;5099935;28;20514;-75
2021/01/18 01:05:27;;;;;;;96.97;32.43;;;;;;;;;;5088242;28;20574;-74
2021/01/18 01:08:32;;;;;;;101.37;34.40;;;;;;;;;;5088191;28;20241;-74
2021/01/18 01:11:43;;;;;;;96.17;34.00;;;;;;;;;;5091789;28;20232;-74
2021/01/18 01:14:48;;;;;;;94.67;32.80;;;;;;;;;;5086900;28;20213;-75
2021/01/18 01:17:53;;;;;;;94.43;32.87;;;;;;;;;;5092651;28;20212;-75
2021/01/18 01:20:58;;;;;;;95.57;33.17;;;;;;;;;;5097537;28;20363;-74
2021/01/18 01:24:03;;;;;;;92.17;33.10;;;;;;;;;;5087942;28;20634;-75
2021/01/18 01:27:07;;;;;;;96.03;33.83;;;;;;;;;;5089649;28;20209;-75
2021/01/18 01:30:14;;;;;;;92.50;33.53;;;;;;;;;;5090263;28;20197;-75
2021/01/18 01:33:19;;;;;;;107.60;34.97;;;;;;;;;;5083293;28;20278;-74
2021/01/18 01:36:23;;;;;;;92.27;32.00;;;;;;;;;;5102567;28;20208;-74
2021/01/18 01:39:28;;;;;;;105.30;35.10;;;;;;;;;;5100543;28;20217;-75
2021/01/18 01:42:33;;;;;;;96.63;34.13;;;;;;;;;;5090992;28;20229;-75
2021/01/18 01:45:39;;;;;;;95.50;34.03;;;;;;;;;;5089154;28;20771;-75
2021/01/18 01:48:43;;;;;;;88.27;31.97;;;;;;;;;;5087803;28;20763;-75
2021/01/18 01:51:49;;;;;;;92.63;32.73;;;;;;;;;;5079640;28;20232;-75
2021/01/18 01:54:56;;;;;;;90.87;32.67;;;;;;;;;;5099025;28;20206;-75
2021/01/18 01:58:02;;;;;;;88.60;32.33;;;;;;;;;;5087894;28;20221;-75
2021/01/18 02:01:07;;;;;;;94.73;32.63;;;;;;;;;;5087315;28;20201;-75
2021/01/18 02:04:13;;;;;;;93.77;33.10;;;;;;;;;;5100409;28;20287;-74
2021/01/18 02:07:22;;;;;;;97.03;33.47;;;;;;;;;;5090090;28;20235;-75
2021/01/18 02:10:29;;;;;;;94.47;33.27;;;;;;;;;;5090199;28;20646;-75
2021/01/18 02:13:38;;;;;;;90.17;32.80;;;;;;;;;;5092457;28;20197;-76
2021/01/18 02:16:46;;;;;;;91.70;33.33;;;;;;;;;;5104816;28;20212;-74
2021/01/18 02:20:09;;;;;;;97.10;35.17;;;;;;;;;;5100426;28;20239;-75
2021/01/18 02:23:31;;;;;;;90.63;33.57;;;;;;;;;;5086791;28;20219;-75
2021/01/18 02:26:52;;;;;;;96.97;34.20;;;;;;;;;;5084146;28;20233;-75
2021/01/18 02:30:06;;;;;;;96.73;33.73;;;;;;;;;;5096551;28;20685;-75
2021/01/18 02:33:28;;;;;;;95.47;33.67;;;;;;;;;;5091194;28;20220;-75
2021/01/18 02:36:36;;;;;;;97.57;31.00;;;;;;;;;;5084699;28;20617;-75
2021/01/18 02:39:47;;;;;;;91.63;31.87;;;;;;;;;;5106149;28;20252;-74
2021/01/18 02:42:55;;;;;;;86.20;31.03;;;;;;;;;;5094428;28;20273;-75
2021/01/18 02:46:02;;;;;;;90.20;31.03;;;;;;;;;;5079761;28;20206;-74
2021/01/18 02:49:07;;;;;;;85.93;30.77;;;;;;;;;;5080036;28;20260;-75
2021/01/18 02:52:13;;;;;;;87.40;31.67;;;;;;;;;;5079628;28;20279;-75
2021/01/18 02:55:18;;;;;;;75.70;26.77;;;;;;;;;;5090960;28;20263;-75
2021/01/18 02:58:24;;;;;;;77.23;26.53;;;;;;;;;;5090731;28;20231;-74
2021/01/18 03:01:34;;;;;;;87.27;27.93;;;;;;;;;;5082907;28;20594;-75
2021/01/18 03:04:48;;;;;;;74.23;27.83;;;;;;;;;;5089882;28;20669;-74
2021/01/18 03:08:14;;;;;;;83.60;30.43;;;;;;;;;;5086164;28;20237;-74
2021/01/18 03:11:22;;;;;;;94.50;32.30;;;;;;;;;;5104116;28;20595;-75
2021/01/18 03:14:29;;;;;;;92.60;31.30;;;;;;;;;;5094824;28;20244;-74
2021/01/18 03:17:35;;;;;;;88.13;32.10;;;;;;;;;;5088514;28;20201;-75
2021/01/18 03:20:40;;;;;;;85.77;28.90;;;;;;;;;;5086624;28;20256;-74
2021/01/18 03:23:45;;;;;;;78.60;28.47;;;;;;;;;;5082313;28;20662;-75
2021/01/18 03:26:51;;;;;;;77.73;28.43;;;;;;;;;;5087316;28;20239;-75
2021/01/18 03:29:55;;;;;;;82.97;29.37;;;;;;;;;;5097082;28;20209;-74
2021/01/18 03:33:00;;;;;;;77.10;28.23;;;;;;;;;;5092944;28;20367;-75
2021/01/18 03:36:05;;;;;;;82.63;27.57;;;;;;;;;;5099302;28;20699;-75
2021/01/18 03:39:10;;;;;;;81.83;29.33;;;;;;;;;;5091534;28;20221;-76
2021/01/18 03:42:15;;;;;;;88.17;29.40;;;;;;;;;;5100154;28;20753;-75
2021/01/18 03:45:20;;;;;;;82.27;29.17;;;;;;;;;;5100230;28;20211;-75
2021/01/18 03:48:25;;;;;;;89.57;31.47;;;;;;;;;;5092085;28;20229;-76
2021/01/18 03:51:30;;;;;;;83.00;30.00;;;;;;;;;;5093600;28;20217;-76
2021/01/18 03:54:35;;;;;;;87.73;31.70;;;;;;;;;;5100216;28;20197;-75
2021/01/18 03:57:40;;;;;;;87.27;30.50;;;;;;;;;;5095482;28;20582;-75
2021/01/18 04:00:44;;;;;;;85.53;29.67;;;;;;;;;;5094212;28;20656;-74
2021/01/18 04:03:49;;;;;;;93.33;31.87;;;;;;;;;;5103324;28;20243;-74
2021/01/18 04:06:54;;;;;;;86.60;30.77;;;;;;;;;;5112395;28;20200;-75
2021/01/18 04:09:58;;;;;;;92.37;31.10;;;;;;;;;;5098734;28;20784;-75
2021/01/18 04:13:04;;;;;;;93.53;32.43;;;;;;;;;;5101965;28;20286;-74
2021/01/18 04:16:08;;;;;;;95.07;32.20;;;;;;;;;;5103750;28;20240;-73
2021/01/18 04:19:13;;;;;;;93.00;32.87;;;;;;;;;;5093221;28;20601;-73
2021/01/18 04:22:18;;;;;;;85.73;30.73;;;;;;;;;;5084043;28;20758;-73
2021/01/18 04:25:23;;;;;;;83.57;28.53;;;;;;;;;;5113709;28;20238;-74
2021/01/18 04:28:29;;;;;;;100.80;34.33;;;;;;;;;;5090389;28;20316;-74
2021/01/18 04:31:34;;;;;;;94.27;32.93;;;;;;;;;;5090396;28;20229;-74
2021/01/18 04:34:39;;;;;;;92.43;31.47;;;;;;;;;;5091391;28;20236;-74
2021/01/18 04:37:44;;;;;;;91.73;31.47;;;;;;;;;;5090694;28;20205;-74
2021/01/18 04:40:49;;;;;;;93.43;31.93;;;;;;;;;;5091247;28;20298;-74
2021/01/18 04:43:54;;;;;;;92.53;32.97;;;;;;;;;;5090151;28;20219;-74
2021/01/18 04:46:59;;;;;;;95.50;32.90;;;;;;;;;;5094129;28;20633;-74
2021/01/18 04:50:05;;;;;;;103.53;33.13;;;;;;;;;;5112642;28;20217;-74
2021/01/18 04:53:14;;;;;;;99.17;33.47;;;;;;;;;;5094042;28;20758;-74
2021/01/18 04:56:29;;;;;;;104.90;33.77;;;;;;;;;;5095087;28;20224;-74
2021/01/18 04:59:38;;;;;;;100.17;33.30;;;;;;;;;;5096710;28;20221;-75
2021/01/18 05:02:47;;;;;;;91.43;32.67;;;;;;;;;;5096591;28;20224;-74
2021/01/18 05:06:07;;;;;;;91.80;31.77;;;;;;;;;;5096491;28;20212;-73
2021/01/18 05:09:27;;;;;;;87.10;30.87;;;;;;;;;;5097402;28;20220;-74
2021/01/18 05:12:32;;;;;;;87.93;31.37;;;;;;;;;;5093141;28;20244;-74
2021/01/18 05:15:39;;;;;;;91.70;33.20;;;;;;;;;;5083858;28;20688;-74
2021/01/18 05:18:44;;;;;;;91.13;31.37;;;;;;;;;;5090452;28;20264;-74
2021/01/18 05:21:49;;;;;;;93.33;31.27;;;;;;;;;;5089546;28;20322;-74
2021/01/18 05:24:54;;;;;;;83.70;28.80;;;;;;;;;;5081899;28;20689;-74
2021/01/18 05:28:04;;;;;;;82.90;28.93;;;;;;;;;;5088499;28;20521;-74
2021/01/18 05:31:09;;;;;;;79.93;29.07;;;;;;;;;;5091820;28;20212;-73
2021/01/18 05:34:15;;;;;;;82.23;29.30;;;;;;;;;;5099537;28;20201;-74
2021/01/18 05:37:19;;;;;;;93.90;31.07;;;;;;;;;;5084437;28;20224;-73
2021/01/18 05:40:24;;;;;;;90.37;29.97;;;;;;;;;;5087242;28;20225;-74
2021/01/18 05:43:35;;;;;;;88.37;29.57;;;;;;;;;;5092241;28;20228;-74
2021/01/18 05:46:42;;;;;;;90.47;30.93;;;;;;;;;;5079969;28;20309;-74
2021/01/18 05:49:47;;;;;;;77.43;27.40;;;;;;;;;;5094182;28;20252;-74
2021/01/18 05:52:52;;;;;;;82.07;27.47;;;;;;;;;;5103810;28;20743;-74
2021/01/18 05:55:57;;;;;;;95.50;29.90;;;;;;;;;;5092656;28;20204;-73
2021/01/18 05:59:11;;;;;;;83.70;27.20;;;;;;;;;;5089357;28;20324;-73
2021/01/18 06:02:23;;;;;;;78.90;28.17;;;;;;;;;;5099467;28;20224;-74
2021/01/18 06:05:29;;;;;;;93.47;30.47;;;;;;;;;;5080049;28;20206;-74
2021/01/18 06:08:33;;;;;;;89.40;30.40;;;;;;;;;;5079499;28;20208;-74
2021/01/18 06:11:38;;;;;;;92.30;30.70;;;;;;;;;;5096667;28;20228;-73
2021/01/18 06:14:43;;;;;;;85.60;28.33;;;;;;;;;;5093006;28;20685;-73
2021/01/18 06:17:50;;;;;;;90.37;32.03;;;;;;;;;;5079168;28;20272;-74
2021/01/18 06:20:57;;;;;;;83.27;29.37;;;;;;;;;;5100303;28;20205;-74
2021/01/18 06:24:20;;;;;;;89.83;31.20;;;;;;;;;;5087641;28;20619;-74
2021/01/18 06:27:31;;;;;;;80.27;28.03;;;;;;;;;;5085926;28;20212;-74
2021/01/18 06:30:39;;;;;;;81.17;30.50;;;;;;;;;;5092940;28;20190;-75
2021/01/18 06:33:45;;;;;;;91.37;30.23;;;;;;;;;;5095318;28;20232;-74
2021/01/18 06:36:50;;;;;;;91.73;30.53;;;;;;;;;;5124586;28;20407;-74
2021/01/18 06:39:59;;;;;;;90.80;29.80;;;;;;;;;;5107386;28;20228;-74
2021/01/18 06:43:04;;;;;;;98.40;32.80;;;;;;;;;;5083338;28;20224;-74
2021/01/18 06:46:16;;;;;;;94.43;32.07;;;;;;;;;;5097656;28;20217;-75
2021/01/18 06:49:22;;;;;;;92.00;30.47;;;;;;;;;;5094826;28;20241;-75
2021/01/18 06:52:27;;;;;;;89.73;30.17;;;;;;;;;;5082888;28;20241;-75
2021/01/18 06:55:32;;;;;;;85.07;30.87;;;;;;;;;;5082483;28;20221;-74
2021/01/18 06:58:46;;;;;;;86.10;30.73;;;;;;;;;;5115032;28;20285;-75
2021/01/18 07:01:56;;;;;;;88.03;30.20;;;;;;;;;;5101290;28;20213;-74
2021/01/18 07:05:10;;;;;;;102.17;33.33;;;;;;;;;;5083960;28;20280;-75
2021/01/18 07:08:15;;;;;;;101.50;34.30;;;;;;;;;;5087114;28;20208;-76
2021/01/18 07:11:20;;;;;;;94.23;31.07;;;;;;;;;;5090484;28;20704;-73
2021/01/18 07:14:27;;;;;;;94.13;32.60;;;;;;;;;;5093437;28;20236;-74
2021/01/18 07:17:45;;;;;;;94.93;33.00;;;;;;;;;;5110165;28;20197;-74
2021/01/18 07:20:54;;;;;;;103.07;33.40;;;;;;;;;;5104340;28;20248;-74
2021/01/18 07:24:02;;;;;;;100.23;33.07;;;;;;;;;;5086228;28;20633;-75
2021/01/18 07:27:09;;;;;;;97.67;34.03;;;;;;;;;;5098555;28;20200;-74
2021/01/18 07:30:15;;;;;;;95.67;33.70;;;;;;;;;;5091323;28;20257;-75
2021/01/18 07:33:19;;;;;;;108.83;34.20;;;;;;;;;;5083044;28;20247;-75
2021/01/18 07:36:30;;;;;;;82.30;28.83;;;;;;;;;;5097896;28;20243;-74
2021/01/18 07:39:36;;;;;;;91.43;33.43;;;;;;;;;;5084178;28;20291;-75
2021/01/18 07:42:41;;;;;;;89.93;31.60;;;;;;;;;;5105973;28;20220;-75
2021/01/18 07:45:50;;;;;;;91.83;31.60;;;;;;;;;;5094300;28;20234;-75
2021/01/18 07:48:55;;;;;;;90.50;32.37;;;;;;;;;;5101569;28;20208;-75
2021/01/18 07:52:27;;;;;;;90.97;33.40;;;;;;;;;;5098086;28;20258;-75
2021/01/18 07:55:33;;;;;;;99.10;34.10;;;;;;;;;;5081579;28;20216;-75
2021/01/18 07:58:41;;;;;;;101.50;32.97;;;;;;;;;;5105897;28;20197;-74
2021/01/18 08:01:47;;;;;;;101.57;33.63;;;;;;;;;;5114501;28;20213;-74
2021/01/18 08:04:52;;;;;;;95.27;33.17;;;;;;;;;;5092817;28;20193;-74
2021/01/18 08:08:04;;;;;;;101.83;35.53;;;;;;;;;;5106126;28;20679;-75
2021/01/18 08:11:17;;;;;;;101.30;34.93;;;;;;;;;;5093598;28;20184;-74
2021/01/18 08:14:22;;;;;;;89.73;30.70;;;;;;;;;;5088452;28;20235;-73
2021/01/18 08:17:26;;;;;;;96.20;33.37;;;;;;;;;;5102240;28;20221;-74
2021/01/18 08:20:31;;;;;;;97.03;33.47;;;;;;;;;;5092002;28;20693;-75
2021/01/18 08:23:42;;;;;;;100.40;33.97;;;;;;;;;;5087725;28;20205;-74
2021/01/18 08:26:58;;;;;;;88.87;33.00;;;;;;;;;;5096364;28;20204;-73
2021/01/18 08:30:16;;;;;;;104.93;34.33;;;;;;;;;;5097196;28;20201;-73
2021/01/18 08:33:24;;;;;;;98.77;32.90;;;;;;;;;;5070022;28;20268;-73
2021/01/18 08:36:32;;;;;;;90.87;32.23;;;;;;;;;;5089122;28;20665;-73
2021/01/18 08:39:37;;;;;;;87.90;31.27;;;;;;;;;;5099497;28;20236;-73
2021/01/18 08:42:43;;;;;;;94.33;32.63;;;;;;;;;;5093156;28;20229;-74
2021/01/18 08:45:48;;;;;;;109.80;34.67;;;;;;;;;;5089137;28;20213;-74
2021/01/18 08:49:08;;;;;;;99.87;33.67;;;;;;;;;;5096582;28;20264;-73
2021/01/18 08:52:15;;;;;;;87.77;31.27;;;;;;;;;;5109327;28;20291;-74
2021/01/18 08:55:42;;;;;;;91.47;32.53;;;;;;;;;;5093304;28;20289;-74
2021/01/18 08:58:48;;;;;;;104.47;35.50;;;;;;;;;;5081535;28;20216;-74
2021/01/18 09:01:59;;;;;;;97.00;34.17;;;;;;;;;;5088648;28;20249;-74
2021/01/18 09:05:15;;;;;;;91.47;33.87;;;;;;;;;;5092233;28;20719;-75
2021/01/18 09:08:20;;;;;;;108.00;35.77;;;;;;;;;;5082321;28;20286;-72
2021/01/18 09:11:26;;;;;;;95.10;34.10;;;;;;;;;;5100312;28;20246;-73
2021/01/18 09:14:32;;;;;;;97.60;33.83;;;;;;;;;;5095649;28;20224;-75
2021/01/18 09:17:36;;;;;;;104.37;36.43;;;;;;;;;;5088193;28;20209;-72
2021/01/18 09:20:42;;;;;;;95.77;34.23;;;;;;;;;;5099637;28;20221;-75
2021/01/18 09:23:46;;;;;;;95.83;34.73;;;;;;;;;;5087227;28;20685;-73
2021/01/18 09:26:51;;;;;;;109.23;36.00;;;;;;;;;;5090581;28;20201;-75
2021/01/18 09:30:00;;;;;;;105.73;35.33;;;;;;;;;;5097245;28;20240;-76
2021/01/18 09:33:06;;;;;;;116.27;38.40;;;;;;;;;;5087692;28;20339;-72
2021/01/18 09:36:11;;;;;;;106.73;34.27;;;;;;;;;;5094947;28;20255;-75
2021/01/18 09:39:20;;;;;;;105.67;35.00;;;;;;;;;;5098198;28;20251;-73
2021/01/18 09:42:26;;;;;;;94.03;33.17;;;;;;;;;;5099567;28;20228;-73
2021/01/18 09:45:33;;;;;;;98.20;33.20;;;;;;;;;;5112505;28;20342;-75
2021/01/18 09:48:38;;;;;;;95.30;34.10;;;;;;;;;;5099441;28;20255;-73
2021/01/18 09:51:43;;;;;;;96.30;35.43;;;;;;;;;;5078820;28;20228;-74
2021/01/18 09:54:50;;;;;;;93.77;33.30;;;;;;;;;;5087802;28;20231;-74
2021/01/18 09:57:57;;;;;;;118.17;36.67;;;;;;;;;;5106420;28;20216;-74
2021/01/18 10:01:08;;;;;;;97.87;33.70;;;;;;;;;;5092606;28;20216;-74
2021/01/18 10:04:18;;;;;;;109.20;35.37;;;;;;;;;;5082531;28;20259;-74
2021/01/18 10:07:24;;;;;;;115.10;36.97;;;;;;;;;;5094366;28;20636;-75
2021/01/18 10:10:28;;;;;;;109.87;38.70;;;;;;;;;;5098280;28;20628;-75
2021/01/18 10:13:33;;;;;;;111.53;35.13;;;;;;;;;;5097410;28;20729;-75
2021/01/18 10:16:38;;;;;;;95.27;33.93;;;;;;;;;;5098697;28;20200;-74
2021/01/18 10:19:43;;;;;;;117.50;36.43;;;;;;;;;;5101292;28;20227;-73
2021/01/18 10:22:48;;;;;;;116.10;37.47;;;;;;;;;;5090265;28;20309;-74
2021/01/18 10:25:53;;;;;;;108.57;37.07;;;;;;;;;;5090781;28;20301;-74
2021/01/18 10:28:59;;;;;;;118.60;41.30;;;;;;;;;;5097541;28;20219;-73
2021/01/18 10:32:05;;;;;;;112.87;36.57;;;;;;;;;;5097931;28;20255;-74
2021/01/18 10:35:24;;;;;;;107.23;35.07;;;;;;;;;;5093844;28;20688;-74
2021/01/18 10:38:28;;;;;;;105.17;34.97;;;;;;;;;;5097158;28;20231;-74
2021/01/18 10:41:33;;;;;;;112.00;36.50;;;;;;;;;;5091325;28;20390;-74
2021/01/18 10:44:39;;;;;;;102.93;37.10;;;;;;;;;;5091444;28;20242;-74
2021/01/18 10:47:54;;;;;;;106.83;36.70;;;;;;;;;;5095584;28;20270;-74
2021/01/18 10:50:59;;;;;;;105.20;36.27;;;;;;;;;;5095999;28;20488;-74
2021/01/18 10:54:04;;;;;;;109.80;37.77;;;;;;;;;;5105056;28;20205;-74
2021/01/18 10:57:19;;;;;;;102.53;35.80;;;;;;;;;;5101615;28;20238;-74
2021/01/18 11:00:26;;;;;;;116.43;38.27;;;;;;;;;;5092762;28;20228;-74
2021/01/18 11:03:32;;;;;;;113.10;38.53;;;;;;;;;;5093035;28;20266;-74
2021/01/18 11:06:37;;;;;;;115.23;37.30;;;;;;;;;;5092406;28;20277;-73
2021/01/18 11:09:42;;;;;;;99.23;37.10;;;;;;;;;;5091913;28;20206;-73
2021/01/18 11:12:46;;;;;;;117.23;38.97;;;;;;;;;;5095234;28;20229;-74
2021/01/18 11:15:50;;;;;;;109.13;38.10;;;;;;;;;;5101034;28;20205;-74
2021/01/18 11:19:00;;;;;;;116.77;39.20;;;;;;;;;;5087444;28;20263;-74
2021/01/18 11:22:05;;;;;;;106.27;37.03;;;;;;;;;;5093214;28;20221;-74
2021/01/18 11:25:10;;;;;;;103.20;34.47;;;;;;;;;;5102156;28;20200;-73
2021/01/18 11:28:15;;;;;;;112.70;35.77;;;;;;;;;;5102443;28;20212;-73
2021/01/18 11:31:20;;;;;;;101.53;36.43;;;;;;;;;;5102237;28;20232;-73
2021/01/18 11:34:26;;;;;;;107.50;35.80;;;;;;;;;;5102126;28;20229;-74
2021/01/18 11:37:30;;;;;;;101.57;35.77;;;;;;;;;;5101755;28;20208;-75
2021/01/18 11:40:35;;;;;;;109.47;36.60;;;;;;;;;;5101499;28;20221;-74
2021/01/18 11:43:39;;;;;;;115.73;37.70;;;;;;;;;;5102352;28;20214;-74
2021/01/18 11:46:45;;;;;;;94.13;35.27;;;;;;;;;;5103123;28;20217;-72
2021/01/18 11:49:53;;;;;;;97.93;33.53;;;;;;;;;;5102513;28;20677;-73
2021/01/18 11:52:58;;;;;;;106.13;35.47;;;;;;;;;;5100571;28;20278;-73
2021/01/18 11:56:03;;;;;;;104.00;35.03;;;;;;;;;;5096068;28;20209;-72
2021/01/18 11:59:07;;;;;;;104.57;34.87;;;;;;;;;;5097311;28;20205;-72
2021/01/18 12:02:12;;;;;;;90.53;34.07;;;;;;;;;;5096439;28;20296;-73
2021/01/18 12:05:18;;;;;;;95.37;35.87;;;;;;;;;;5081327;28;20221;-72
2021/01/18 12:08:22;;;;;;;96.47;34.50;;;;;;;;;;5099703;28;20212;-72
2021/01/18 12:11:27;;;;;;;94.63;33.20;;;;;;;;;;5112764;28;20230;-72
2021/01/18 12:14:32;;;;;;;93.53;32.27;;;;;;;;;;5080773;28;20749;-72
2021/01/18 12:17:37;;;;;;;94.80;35.00;;;;;;;;;;5083410;28;20220;-72
2021/01/18 12:20:42;;;;;;;100.73;33.97;;;;;;;;;;5095963;28;20753;-74
2021/01/18 12:23:47;;;;;;;99.33;34.13;;;;;;;;;;5099923;28;20263;-73
2021/01/18 12:26:52;;;;;;;92.10;34.33;;;;;;;;;;5111392;28;20204;-73
2021/01/18 12:29:58;;;;;;;95.90;34.43;;;;;;;;;;5098147;28;20206;-73
2021/01/18 12:33:02;;;;;;;91.13;32.93;;;;;;;;;;5092090;28;20265;-73
2021/01/18 12:36:08;;;;;;;97.63;32.50;;;;;;;;;;5091314;28;20248;-73
2021/01/18 12:39:13;;;;;;;103.53;33.30;;;;;;;;;;5090396;28;20205;-73
2021/01/18 12:42:18;;;;;;;97.20;34.00;;;;;;;;;;5091841;28;20352;-73
2021/01/18 12:45:22;;;;;;;96.27;33.20;;;;;;;;;;5107742;28;20201;-74
2021/01/18 12:48:27;;;;;;;102.43;35.97;;;;;;;;;;5091900;28;20209;-73
2021/01/18 12:51:32;;;;;;;116.40;41.57;;;;;;;;;;5091473;28;20221;-73
2021/01/18 12:54:37;;;;;;;104.53;36.50;;;;;;;;;;5088653;28;20634;-74
2021/01/18 12:57:42;;;;;;;112.00;35.83;;;;;;;;;;5101637;28;20232;-73
2021/01/18 13:00:46;;;;;;;108.10;36.33;;;;;;;;;;5089674;28;20259;-70
2021/01/18 13:03:51;;;;;;;93.30;34.30;;;;;;;;;;5091015;28;20749;-70
2021/01/18 13:06:57;;;;;;;99.97;36.73;;;;;;;;;;5098661;28;20240;-71
2021/01/18 13:10:02;;;;;;;109.30;36.20;;;;;;;;;;5092361;28;20205;-70
2021/01/18 13:13:06;;;;;;;100.70;35.07;;;;;;;;;;5093529;28;20260;-70
2021/01/18 13:16:11;;;;;;;115.63;37.77;;;;;;;;;;5099229;28;20254;-71
2021/01/18 13:19:15;;;;;;;106.57;36.13;;;;;;;;;;5094430;28;20192;-71
2021/01/18 13:22:21;;;;;;;109.53;37.10;;;;;;;;;;5111101;28;20340;-71
2021/01/18 13:25:27;;;;;;;118.80;37.77;;;;;;;;;;5099351;28;20730;-71
2021/01/18 13:28:32;;;;;;;109.87;37.53;;;;;;;;;;5097274;27;20262;-71
2021/01/18 13:31:37;;;;;;;119.47;39.77;;;;;;;;;;5107221;28;20636;-73
2021/01/18 13:34:42;;;;;;;120.53;40.27;;;;;;;;;;5095448;28;20259;-71
2021/01/18 13:37:48;;;;;;;112.00;36.83;;;;;;;;;;5083043;28;20711;-74
2021/01/18 13:40:52;;;;;;;97.03;35.50;;;;;;;;;;5099469;28;20224;-73
2021/01/18 13:43:57;;;;;;;114.00;38.07;;;;;;;;;;5099552;28;20695;-73
2021/01/18 13:47:01;;;;;;;119.20;40.10;;;;;;;;;;5099320;28;20700;-74
2021/01/18 13:50:07;;;;;;;112.93;40.77;;;;;;;;;;5099110;28;20208;-74
2021/01/18 13:53:12;;;;;;;112.33;38.47;;;;;;;;;;5098363;28;20723;-74
2021/01/18 13:56:18;;;;;;;100.30;36.63;;;;;;;;;;5084178;28;20692;-74
2021/01/18 13:59:23;;;;;;;114.80;36.23;;;;;;;;;;5101506;28;20208;-73
2021/01/18 14:02:28;;;;;;;108.30;39.93;;;;;;;;;;5112207;28;20734;-72
2021/01/18 14:05:33;;;;;;;109.17;36.40;;;;;;;;;;5095151;28;20201;-73
2021/01/18 14:08:39;;;;;;;105.40;37.03;;;;;;;;;;5111584;28;20208;-72
2021/01/18 14:11:44;;;;;;;120.57;40.87;;;;;;;;;;5109501;28;20225;-73
2021/01/18 14:14:49;;;;;;;120.57;37.63;;;;;;;;;;5107889;28;20209;-73
2021/01/18 14:17:53;;;;;;;125.43;40.00;;;;;;;;;;5114191;28;20235;-72
2021/01/18 14:21:00;;;;;;;113.63;40.57;;;;;;;;;;5104665;28;20228;-73
2021/01/18 14:24:07;;;;;;;113.80;38.97;;;;;;;;;;5091390;28;20209;-73
2021/01/18 14:27:11;;;;;;;103.67;38.47;;;;;;;;;;5099969;28;20262;-73
2021/01/18 14:30:16;;;;;;;112.07;39.33;;;;;;;;;;5099897;28;20267;-72
2021/01/18 14:33:21;;;;;;;120.23;42.27;;;;;;;;;;5118117;27;20277;-73
2021/01/18 14:36:27;;;;;;;107.10;37.50;;;;;;;;;;5095302;28;20637;-73
2021/01/18 14:39:33;;;;;;;101.87;37.10;;;;;;;;;;5098385;28;20243;-73
2021/01/18 14:42:38;;;;;;;102.50;34.87;;;;;;;;;;5098400;28;20225;-73
2021/01/18 14:45:43;;;;;;;76.83;28.47;;;;;;;;;;5097704;28;20254;-73
2021/01/18 14:48:48;;;;;;;80.93;28.67;;;;;;;;;;5099953;28;20624;-73
2021/01/18 14:51:53;;;;;;;91.60;30.70;;;;;;;;;;5102138;28;20716;-73
2021/01/18 14:54:58;;;;;;;70.70;25.37;;;;;;;;;;5101914;28;20600;-73
2021/01/18 14:58:03;;;;;;;59.07;22.67;;;;;;;;;;5093889;28;20238;-73
2021/01/18 15:01:08;;;;;;;23.57;11.00;;;;;;;;;;5102646;28;20236;-73
2021/01/18 15:04:12;;;;;;;37.47;11.50;;;;;;;;;;5101603;28;20217;-73
2021/01/18 15:07:17;;;;;;;22.50;9.47;;;;;;;;;;5095635;28;20274;-73
2021/01/18 15:10:22;;;;;;;22.00;10.90;;;;;;;;;;5103172;28;20567;-73
2021/01/18 15:13:28;;;;;;;26.50;10.50;;;;;;;;;;5111696;28;20228;-73
2021/01/18 15:16:36;;;;;;;23.03;9.57;;;;;;;;;;5108075;27;20209;-72
2021/01/18 15:19:41;;;;;;;31.37;11.43;;;;;;;;;;5124262;28;20232;-72
2021/01/18 15:22:46;;;;;;;27.57;11.00;;;;;;;;;;5124405;28;20225;-72
2021/01/18 15:25:51;;;;;;;28.60;10.43;;;;;;;;;;5111164;28;20216;-71
2021/01/18 15:28:56;;;;;;;24.63;9.53;;;;;;;;;;5115528;28;20213;-72
2021/01/18 15:32:01;;;;;;;25.10;10.97;;;;;;;;;;5101287;28;20228;-73
2021/01/18 15:35:07;;;;;;;18.17;9.33;;;;;;;;;;5101413;28;20267;-72
2021/01/18 15:38:11;;;;;;;25.47;8.97;;;;;;;;;;5103289;28;20730;-73
2021/01/18 15:41:17;;;;;;;15.57;8.27;;;;;;;;;;5103008;28;20343;-72
2021/01/18 15:44:22;;;;;;;26.07;10.00;;;;;;;;;;5096537;28;20200;-73
2021/01/18 15:47:26;;;;;;;25.50;10.57;;;;;;;;;;5101058;28;20729;-73
2021/01/18 15:50:31;;;;;;;17.87;9.00;;;;;;;;;;5096328;28;20583;-73
2021/01/18 15:53:41;;;;;;;22.30;9.60;;;;;;;;;;5095031;28;20207;-73
2021/01/18 15:56:47;;;;;;;18.93;8.63;;;;;;;;;;5092218;28;20229;-73
2021/01/18 15:59:51;;;;;;;19.90;9.03;;;;;;;;;;5102015;28;20205;-72
2021/01/18 16:02:56;;;;;;;18.30;8.13;;;;;;;;;;5098475;28;20757;-72
2021/01/18 16:06:01;;;;;;;17.70;8.37;;;;;;;;;;5095485;28;20259;-73
2021/01/18 16:09:06;;;;;;;17.47;8.80;;;;;;;;;;5113096;28;20205;-74
2021/01/18 16:12:13;;;;;;;19.13;8.73;;;;;;;;;;5099956;28;20596;-74
2021/01/18 16:15:18;;;;;;;17.37;8.57;;;;;;;;;;5081643;28;20267;-74
2021/01/18 16:18:24;;;;;;;23.67;9.23;;;;;;;;;;5106058;28;20212;-74
2021/01/18 16:21:35;;;;;;;23.63;9.57;;;;;;;;;;5091075;28;20249;-72
2021/01/18 16:24:39;;;;;;;22.60;9.50;;;;;;;;;;5081851;28;20209;-72
2021/01/18 16:27:45;;;;;;;20.83;9.80;;;;;;;;;;5093827;28;20212;-72
2021/01/18 16:30:50;;;;;;;20.30;9.23;;;;;;;;;;5079967;28;20209;-71
2021/01/18 16:33:55;;;;;;;25.73;9.73;;;;;;;;;;5097067;28;20230;-71
2021/01/18 16:37:00;;;;;;;21.93;9.80;;;;;;;;;;5080440;28;20201;-71
2021/01/18 16:40:05;;;;;;;23.63;9.23;;;;;;;;;;5105319;28;20704;-72
2021/01/18 16:43:10;;;;;;;22.03;9.13;;;;;;;;;;5084740;28;20229;-72
2021/01/18 16:46:16;;;;;;;21.77;9.17;;;;;;;;;;5080492;28;20266;-72
2021/01/18 16:49:21;;;;;;;21.53;9.13;;;;;;;;;;5085214;28;20225;-72
2021/01/18 16:52:26;;;;;;;19.70;8.23;;;;;;;;;;5100735;28;20216;-72
2021/01/18 16:55:31;;;;;;;20.07;8.63;;;;;;;;;;5091405;28;20930;-72
2021/01/18 16:58:36;;;;;;;18.63;8.70;;;;;;;;;;5086282;28;20193;-73
2021/01/18 17:01:43;;;;;;;24.40;9.00;;;;;;;;;;5099865;28;20232;-70
2021/01/18 17:04:47;;;;;;;23.63;8.20;;;;;;;;;;5088341;28;20189;-74
2021/01/18 17:07:53;;;;;;;18.80;8.77;;;;;;;;;;5099349;28;20212;-74
2021/01/18 17:10:58;;;;;;;16.07;7.67;;;;;;;;;;5102568;28;20213;-75
2021/01/18 17:14:04;;;;;;;20.37;9.27;;;;;;;;;;5096787;28;20209;-75
2021/01/18 17:17:09;;;;;;;18.67;8.63;;;;;;;;;;5090305;28;20200;-76
2021/01/18 17:20:14;;;;;;;22.87;9.27;;;;;;;;;;5093772;28;20205;-75
2021/01/18 17:23:19;;;;;;;25.77;8.80;;;;;;;;;;5089376;28;20229;-76
2021/01/18 17:26:24;;;;;;;27.13;10.57;;;;;;;;;;5094557;28;20759;-76
2021/01/18 17:29:30;;;;;;;26.40;10.20;;;;;;;;;;5098799;28;20220;-74
2021/01/18 17:32:34;;;;;;;25.40;9.23;;;;;;;;;;5091662;28;20305;-74
2021/01/18 17:35:39;;;;;;;20.10;9.33;;;;;;;;;;5088996;28;20213;-74
2021/01/18 17:38:44;;;;;;;26.77;8.53;;;;;;;;;;5104065;28;20466;-74
2021/01/18 17:41:51;;;;;;;25.00;8.13;;;;;;;;;;5094519;28;20356;-75
2021/01/18 17:44:56;;;;;;;17.63;7.63;;;;;;;;;;5104082;27;20196;-77
2021/01/18 17:48:01;;;;;;;15.33;7.10;;;;;;;;;;5101562;28;20228;-73
2021/01/18 17:51:06;;;;;;;16.20;7.90;;;;;;;;;;5084637;28;20236;-74
2021/01/18 17:54:12;;;;;;;18.97;8.13;;;;;;;;;;5093462;28;20209;-74
2021/01/18 17:57:18;;;;;;;22.67;8.00;;;;;;;;;;5094838;28;20197;-75
2021/01/18 18:00:24;;;;;;;15.90;7.17;;;;;;;;;;5095409;28;20233;-74
2021/01/18 18:03:30;;;;;;;17.87;8.40;;;;;;;;;;5114048;28;20669;-73